Time;durP1;ratioP1;P1;durP2;ratioP2;P2;SDS_P1;SDS_P2;PMS_P1;PMS_P2;Temp;Humidity;BMP_temperature;BMP_pressure;BME280_temperature;BME280_humidity;BME280_pressure;Samples;Min_cycle;Max_cycle;Signal;HPM_P1;HPM_P2
2021/07/27 00:00:22;;;;;;;8.57;7.65;;;;;;;22.85;62.57;101166.09;5021229;28;20070;-81
2021/07/27 00:02:47;;;;;;;9.15;7.75;;;;;;;22.83;62.94;101170.53;5054174;28;20490;-82
2021/07/27 00:05:13;;;;;;;10.00;7.57;;;;;;;22.84;62.91;101172.25;5021025;28;20028;-81
2021/07/27 00:07:39;;;;;;;9.18;8.00;;;;;;;22.84;62.80;101178.34;5037526;28;20116;-82
2021/07/27 00:10:06;;;;;;;8.07;7.18;;;;;;;22.83;62.16;101170.53;5053986;28;20049;-81
2021/07/27 00:12:31;;;;;;;8.88;7.50;;;;;;;22.84;62.83;101177.50;5053820;28;20048;-82
2021/07/27 00:14:57;;;;;;;9.23;7.20;;;;;;;22.85;62.47;101180.09;5037526;28;20472;-82
2021/07/27 00:17:24;;;;;;;8.48;7.57;;;;;;;22.83;62.03;101179.25;5020786;28;20083;-82
2021/07/27 00:19:50;;;;;;;8.63;7.68;;;;;;;22.82;61.79;101181.91;5053903;28;20025;-82
2021/07/27 00:22:15;;;;;;;7.63;6.82;;;;;;;22.83;61.96;101174.00;5037134;28;20048;-81
2021/07/27 00:24:41;;;;;;;10.15;7.53;;;;;;;22.84;62.14;101180.13;5037274;28;20079;-82
2021/07/27 00:27:06;;;;;;;9.18;7.55;;;;;;;22.84;61.96;101174.88;5037069;28;20029;-84
2021/07/27 00:29:34;;;;;;;10.13;7.72;;;;;;;22.83;62.19;101184.50;5020658;28;20436;-84
2021/07/27 00:31:59;;;;;;;10.10;7.90;;;;;;;22.84;61.82;101190.59;5053899;28;20057;-84
2021/07/27 00:34:26;;;;;;;10.02;7.90;;;;;;;22.83;62.45;101183.66;5053482;28;20068;-84
2021/07/27 00:36:51;;;;;;;8.85;7.30;;;;;;;22.83;61.86;101183.66;5019953;28;20021;-84
2021/07/27 00:39:16;;;;;;;8.20;7.35;;;;;;;22.84;62.03;101188.84;5037029;28;20032;-83
2021/07/27 00:41:42;;;;;;;8.18;7.28;;;;;;;22.85;62.02;101189.72;5036954;28;20097;-84
2021/07/27 00:44:07;;;;;;;8.88;7.78;;;;;;;22.85;61.72;101189.72;5020012;28;20144;-84
2021/07/27 00:46:33;;;;;;;10.75;7.38;;;;;;;22.83;61.52;101188.91;5036752;28;20433;-84
2021/07/27 00:48:59;;;;;;;8.15;7.20;;;;;;;22.82;61.85;101193.28;5053239;28;20044;-84
2021/07/27 00:51:25;;;;;;;7.88;6.97;;;;;;;22.84;61.52;101190.59;5036769;28;20453;-82
2021/07/27 00:53:51;;;;;;;7.10;6.40;;;;;;;22.83;61.68;101186.28;5037696;28;20125;-80
2021/07/27 00:56:17;;;;;;;9.93;7.15;;;;;;;22.84;62.69;101190.59;5036614;28;20082;-82
2021/07/27 00:58:43;;;;;;;9.93;7.25;;;;;;;22.85;61.84;101190.56;5054470;28;20033;-82
2021/07/27 01:01:08;;;;;;;9.50;7.82;;;;;;;22.82;62.29;101187.16;5036677;28;20032;-83
2021/07/27 01:03:34;;;;;;;7.55;6.75;;;;;;;22.81;62.25;101175.81;5038988;28;20399;-82
2021/07/27 01:05:59;;;;;;;7.95;6.75;;;;;;;22.85;61.81;101187.09;5065132;28;20024;-82
2021/07/27 01:08:25;;;;;;;8.88;7.05;;;;;;;22.84;62.03;101180.97;5063989;28;20115;-82
2021/07/27 01:10:50;;;;;;;7.90;6.68;;;;;;;22.83;61.53;101173.16;5056859;28;20037;-82
2021/07/27 01:13:16;;;;;;;7.32;6.60;;;;;;;22.85;61.88;101164.34;5038957;28;20028;-82
2021/07/27 01:15:41;;;;;;;8.20;6.95;;;;;;;22.84;61.73;101159.13;5038023;28;20029;-82
2021/07/27 01:18:10;;;;;;;7.97;7.10;;;;;;;22.84;61.01;101159.97;5037224;28;20426;-82
2021/07/27 01:39:27;;;;;;;7.05;6.35;;;;;;;22.85;61.16;101126.75;5053757;28;20506;-82
2021/07/27 01:42:09;;;;;;;7.10;6.40;;;;;;;22.87;61.60;101125.78;5053450;28;20044;-82
2021/07/27 01:44:44;;;;;;;7.68;6.72;;;;;;;22.88;62.18;101131.91;5053368;28;20613;-80
2021/07/27 01:47:10;;;;;;;6.45;5.85;;;;;;;22.86;61.49;101131.06;5054024;28;20021;-82
2021/07/27 01:49:40;;;;;;;7.72;6.88;;;;;;;22.83;60.88;101129.41;5037136;28;20036;-81
2021/07/27 01:52:10;;;;;;;8.60;6.90;;;;;;;22.85;62.01;101132.84;5054268;28;20493;-82
2021/07/27 01:54:41;;;;;;;7.63;6.78;;;;;;;22.84;61.31;101138.97;5020945;28;20571;-82
2021/07/27 01:57:10;;;;;;;7.80;7.00;;;;;;;22.84;61.97;101132.88;5052406;28;20399;-82
2021/07/27 01:59:37;;;;;;;7.07;6.13;;;;;;;22.83;61.49;101126.78;5052399;28;20033;-82
2021/07/27 02:02:03;;;;;;;7.43;6.50;;;;;;;22.86;62.24;101129.31;5052483;28;20451;-82
2021/07/27 02:04:28;;;;;;;7.97;7.10;;;;;;;22.84;61.57;101122.38;5052139;28;20049;-82
2021/07/27 02:06:54;;;;;;;7.95;7.15;;;;;;;22.82;61.25;101122.44;5051992;28;20029;-81
2021/07/27 02:09:19;;;;;;;7.57;6.70;;;;;;;22.83;61.07;101123.31;5043748;28;20037;-81
2021/07/27 02:11:46;;;;;;;7.45;6.65;;;;;;;22.84;61.87;101125.00;5032701;28;20048;-81
2021/07/27 02:14:14;;;;;;;7.20;6.50;;;;;;;22.83;61.45;101125.94;5058255;28;20029;-80
2021/07/27 02:16:40;;;;;;;7.68;6.85;;;;;;;22.84;61.54;101128.50;5036309;28;20464;-82
2021/07/27 02:19:05;;;;;;;9.25;7.03;;;;;;;22.84;61.58;101127.63;5052385;28;20060;-83
2021/07/27 02:21:31;;;;;;;7.20;6.45;;;;;;;22.84;61.14;101135.50;5052643;28;20021;-83
2021/07/27 02:23:58;;;;;;;7.57;6.55;;;;;;;22.85;62.16;101129.38;5035652;28;20467;-82
2021/07/27 02:26:24;;;;;;;8.30;6.65;;;;;;;22.83;61.42;101125.94;5052383;28;20078;-83
2021/07/27 02:28:49;;;;;;;7.13;6.40;;;;;;;22.83;61.25;101125.94;5019514;28;20025;-82
2021/07/27 02:31:20;;;;;;;7.63;6.72;;;;;;;22.83;61.56;101129.41;5019596;28;20033;-82
2021/07/27 02:33:46;;;;;;;8.02;7.30;;;;;;;22.80;61.19;101124.25;5036007;28;20060;-83
2021/07/27 02:36:11;;;;;;;7.38;6.70;;;;;;;22.82;61.81;101124.19;5052221;28;20033;-82
2021/07/27 02:38:36;;;;;;;8.65;6.70;;;;;;;22.83;61.03;101124.16;5019138;28;20047;-83
2021/07/27 02:41:02;;;;;;;7.88;7.05;;;;;;;22.83;61.74;101125.94;5019008;28;20032;-82
2021/07/27 02:43:30;;;;;;;9.30;7.28;;;;;;;22.83;61.39;101123.31;5053005;28;20052;-83
2021/07/27 02:45:56;;;;;;;8.23;7.15;;;;;;;22.83;61.84;101121.53;5035723;28;20124;-83
2021/07/27 02:48:21;;;;;;;6.95;6.25;;;;;;;22.83;60.71;101121.53;5035319;28;20114;-82
2021/07/27 02:50:48;;;;;;;9.23;7.10;;;;;;;22.85;61.86;101132.00;5035184;28;20025;-83
2021/07/27 02:53:14;;;;;;;8.55;7.65;;;;;;;22.84;61.81;101130.25;5052789;28;20017;-84
2021/07/27 02:55:42;;;;;;;9.70;8.32;;;;;;;22.78;61.35;101119.03;5057391;28;20438;-83
2021/07/27 02:58:11;;;;;;;10.60;8.27;;;;;;;22.81;61.63;101120.72;5035314;28;20372;-82
2021/07/27 03:00:36;;;;;;;8.60;7.72;;;;;;;22.79;60.92;101123.38;5054671;28;20032;-83
2021/07/27 03:03:02;;;;;;;9.45;7.72;;;;;;;22.80;61.28;101121.63;5039037;28;20387;-82
2021/07/27 03:05:27;;;;;;;10.45;8.27;;;;;;;22.79;61.69;101115.50;5022435;28;20092;-83
2021/07/27 03:07:52;;;;;;;10.20;8.32;;;;;;;22.79;60.91;101119.88;5022373;28;20483;-82
2021/07/27 03:10:19;;;;;;;11.43;8.40;;;;;;;22.79;61.26;101123.38;5022093;28;20051;-82
2021/07/27 03:12:46;;;;;;;9.45;8.45;;;;;;;22.77;61.22;101125.16;5055334;28;20028;-82
2021/07/27 03:15:12;;;;;;;9.50;8.10;;;;;;;22.78;61.46;101120.81;5038843;28;20021;-83
2021/07/27 03:17:38;;;;;;;12.32;9.15;;;;;;;22.77;61.06;101112.06;5055164;28;20475;-85
2021/07/27 03:20:05;;;;;;;10.02;8.50;;;;;;;22.78;60.98;101116.41;5055264;28;20082;-85
2021/07/27 03:22:31;;;;;;;12.32;8.93;;;;;;;22.77;61.16;101113.81;5038252;28;20029;-85
2021/07/27 03:24:56;;;;;;;11.25;9.88;;;;;;;22.76;60.59;101114.75;5021881;28;20025;-84
2021/07/27 03:27:22;;;;;;;11.15;9.85;;;;;;;22.76;60.73;101112.97;5054890;28;20497;-84
2021/07/27 03:29:47;;;;;;;10.65;9.05;;;;;;;22.76;60.89;101109.50;5021629;28;20035;-85
2021/07/27 03:32:12;;;;;;;11.82;10.30;;;;;;;22.75;60.59;101103.34;5055997;28;20348;-85
2021/07/27 03:34:38;;;;;;;12.93;10.45;;;;;;;22.74;60.87;101109.53;5055016;28;20029;-85
2021/07/27 03:37:04;;;;;;;11.90;9.52;;;;;;;22.75;60.82;101110.38;5054713;28;20395;-85
2021/07/27 03:39:29;;;;;;;11.55;9.48;;;;;;;22.72;60.54;101103.44;5038175;28;20129;-85
2021/07/27 03:41:55;;;;;;;13.15;10.57;;;;;;;22.75;60.18;101099.88;5054708;28;20024;-85
2021/07/27 03:44:20;;;;;;;12.55;9.70;;;;;;;22.72;61.08;101099.97;5054418;28;20534;-85
2021/07/27 03:46:46;;;;;;;11.45;10.00;;;;;;;22.72;60.58;101092.97;5038043;28;20021;-85
2021/07/27 03:49:11;;;;;;;12.80;10.15;;;;;;;22.74;60.51;101095.56;5055710;28;20545;-85
2021/07/27 03:51:37;;;;;;;14.43;10.82;;;;;;;22.73;60.54;101092.06;5037590;28;20537;-79
2021/07/27 03:54:02;;;;;;;11.60;10.32;;;;;;;22.75;60.49;101090.25;5055555;28;20063;-79
2021/07/27 03:56:31;;;;;;;14.68;11.10;;;;;;;22.73;60.35;101096.44;5037591;28;20485;-79
2021/07/27 03:58:56;;;;;;;12.68;9.73;;;;;;;22.74;60.19;101093.78;5037902;28;20036;-79
2021/07/27 04:01:21;;;;;;;13.88;10.70;;;;;;;22.74;60.46;101090.31;5021192;28;20395;-79
2021/07/27 04:03:47;;;;;;;13.57;10.32;;;;;;;22.76;60.93;101089.34;5054234;28;20083;-80
2021/07/27 04:06:15;;;;;;;10.93;9.23;;;;;;;22.78;60.32;101084.94;5054691;28;20039;-79
2021/07/27 04:08:41;;;;;;;10.68;8.93;;;;;;;22.79;60.36;101091.03;5037674;28;20479;-79
2021/07/27 04:11:07;;;;;;;14.43;9.85;;;;;;;22.79;60.82;101096.28;5053181;28;20082;-80
2021/07/27 04:13:33;;;;;;;10.82;9.52;;;;;;;22.80;60.94;101101.50;5038836;28;20032;-80
2021/07/27 04:16:00;;;;;;;11.70;10.45;;;;;;;22.77;60.32;101108.56;5061060;28;20028;-81
2021/07/27 04:18:26;;;;;;;12.18;10.85;;;;;;;22.78;60.40;101102.44;5039570;28;20029;-81
2021/07/27 04:20:57;;;;;;;12.82;11.05;;;;;;;22.78;60.57;101113.78;5056195;28;20390;-81
2021/07/27 04:23:23;;;;;;;15.07;10.63;;;;;;;22.78;60.19;101103.28;5054110;28;20540;-79
2021/07/27 04:25:48;;;;;;;12.85;11.07;;;;;;;22.82;60.44;101104.09;5054879;28;20033;-80
2021/07/27 04:28:14;;;;;;;11.45;9.77;;;;;;;22.84;60.38;101107.50;5037640;28;20120;-81
2021/07/27 04:30:39;;;;;;;12.00;10.40;;;;;;;22.81;60.25;101097.09;5038157;28;20029;-81
2021/07/27 04:33:05;;;;;;;14.45;11.15;;;;;;;22.83;60.11;101104.94;5021432;28;20060;-83
2021/07/27 04:35:31;;;;;;;11.93;10.68;;;;;;;22.88;60.39;101103.88;5056154;28;20049;-83
2021/07/27 04:37:58;;;;;;;11.90;9.77;;;;;;;22.91;60.49;101095.94;5057099;28;20028;-87
2021/07/27 04:40:23;;;;;;;10.43;9.43;;;;;;;22.96;60.29;101094.03;5022057;28;20439;-85
2021/07/27 04:42:48;;;;;;;11.52;8.85;;;;;;;23.00;60.71;101094.88;5054378;28;20112;-85
2021/07/27 04:45:14;;;;;;;9.80;8.80;;;;;;;23.04;60.16;101098.25;5037414;28;20060;-83
2021/07/27 04:47:40;;;;;;;11.75;8.65;;;;;;;23.05;60.22;101092.97;5037376;28;20132;-85
2021/07/27 04:50:06;;;;;;;9.13;8.02;;;;;;;23.06;60.49;101092.06;5037419;28;20025;-84
2021/07/27 04:52:32;;;;;;;8.85;7.95;;;;;;;23.09;60.33;101094.59;5037033;28;20036;-85
2021/07/27 04:54:57;;;;;;;9.90;8.73;;;;;;;23.11;60.03;101094.56;5039954;28;20025;-84
2021/07/27 04:57:23;;;;;;;9.27;8.38;;;;;;;23.12;60.33;101093.63;5061029;28;20120;-85
2021/07/27 04:59:48;;;;;;;8.73;7.88;;;;;;;23.14;60.01;101097.94;5053564;28;20025;-85
2021/07/27 05:02:14;;;;;;;9.55;8.52;;;;;;;23.12;60.11;101098.88;5054394;28;20032;-86
2021/07/27 05:04:40;;;;;;;10.20;9.20;;;;;;;23.06;60.31;101102.56;5020672;28;20025;-86
2021/07/27 05:07:05;;;;;;;10.23;9.18;;;;;;;23.06;60.26;101094.69;5020947;28;20043;-82
2021/07/27 05:09:31;;;;;;;10.27;9.10;;;;;;;23.06;60.16;101099.94;5036856;28;20025;-82
2021/07/27 05:11:57;;;;;;;11.07;9.38;;;;;;;23.06;60.32;101101.69;5053330;28;20055;-83
2021/07/27 05:14:23;;;;;;;10.70;9.60;;;;;;;23.07;60.18;101098.16;5053417;28;20043;-84
2021/07/27 05:16:48;;;;;;;16.25;12.77;;;;;;;23.02;59.09;101095.69;5038472;28;20114;-85
2021/07/27 05:19:13;;;;;;;14.90;12.50;;;;;;;23.04;59.30;101098.25;5056562;28;20032;-87
2021/07/27 05:21:40;;;;;;;22.80;17.15;;;;;;;22.95;59.30;101101.94;5055100;28;20051;-88
2021/07/27 05:24:05;;;;;;;31.45;22.60;;;;;;;22.84;58.91;101110.13;5025921;28;20036;-87
2021/07/27 05:26:30;;;;;;;25.50;21.65;;;;;;;22.78;59.13;101108.53;5043611;28;20056;-86
2021/07/27 05:28:56;;;;;;;33.28;24.30;;;;;;;22.74;58.50;101104.28;5040987;28;20120;-88
2021/07/27 05:31:24;;;;;;;26.55;21.33;;;;;;;22.73;59.24;101093.81;5040026;28;20116;-88
2021/07/27 05:33:50;;;;;;;26.58;22.52;;;;;;;22.75;59.50;101092.88;5019712;28;20053;-84
2021/07/27 05:36:15;;;;;;;27.88;24.88;;;;;;;22.74;58.57;101100.78;5045679;28;20403;-87
2021/07/27 05:38:41;;;;;;;30.08;22.92;;;;;;;22.86;58.64;101097.81;5037832;28;20471;-86
2021/07/27 05:41:06;;;;;;;32.35;24.23;;;;;;;22.78;57.76;101097.19;5019693;28;20040;-82
2021/07/27 05:43:32;;;;;;;31.42;24.75;;;;;;;22.75;57.75;101100.72;5019329;28;20021;-82
2021/07/27 05:45:57;;;;;;;29.60;26.05;;;;;;;22.72;57.74;101102.59;5019596;28;20021;-81
2021/07/27 05:48:23;;;;;;;25.75;22.27;;;;;;;22.73;58.14;101099.06;5036531;28;20029;-85
2021/07/27 05:50:50;;;;;;;27.85;23.63;;;;;;;22.71;57.76;101093.88;5019989;28;20033;-84
2021/07/27 05:53:15;;;;;;;26.30;22.08;;;;;;;22.72;58.36;101097.34;5052616;28;20021;-84
2021/07/27 05:55:40;;;;;;;24.70;21.70;;;;;;;22.72;58.22;101103.44;5036883;28;20029;-84
2021/07/27 05:58:06;;;;;;;24.40;21.08;;;;;;;22.72;57.92;101100.84;5021310;28;20040;-85
2021/07/27 06:00:35;;;;;;;24.40;20.77;;;;;;;22.73;58.17;101104.31;5042992;28;20036;-84
2021/07/27 06:03:05;;;;;;;24.08;20.85;;;;;;;22.72;58.34;101098.22;5069223;28;20021;-85
2021/07/27 06:05:31;;;;;;;25.77;22.23;;;;;;;22.72;57.96;101100.84;5025559;28;20033;-84
2021/07/27 06:07:56;;;;;;;22.45;20.05;;;;;;;22.73;57.49;101099.06;5054056;28;20060;-85
2021/07/27 06:10:21;;;;;;;24.77;20.35;;;;;;;22.72;57.70;101092.97;5058364;28;20044;-84
2021/07/27 06:12:47;;;;;;;25.63;20.85;;;;;;;22.76;57.24;101088.50;5027263;28;20040;-81
2021/07/27 06:15:12;;;;;;;23.17;20.60;;;;;;;22.78;57.50;101092.81;5021367;28;20408;-83
2021/07/27 06:17:38;;;;;;;27.55;21.17;;;;;;;22.76;57.63;101093.75;5020094;28;20032;-84
2021/07/27 06:20:04;;;;;;;23.08;20.52;;;;;;;22.78;57.60;101097.19;5058381;28;20076;-83
2021/07/27 06:22:29;;;;;;;23.58;20.90;;;;;;;22.76;57.32;101101.63;5026869;28;20040;-84
2021/07/27 06:24:58;;;;;;;23.30;20.17;;;;;;;22.74;57.63;101101.66;5061560;28;20058;-83
2021/07/27 06:27:24;;;;;;;22.02;19.75;;;;;;;22.73;57.48;101102.56;5036669;28;20059;-83
2021/07/27 06:29:50;;;;;;;22.30;19.52;;;;;;;22.74;57.41;101108.66;5054588;28;20044;-84
2021/07/27 06:32:16;;;;;;;22.30;20.00;;;;;;;22.72;56.93;101111.31;5058993;28;20052;-83
2021/07/27 06:34:42;;;;;;;21.77;19.65;;;;;;;22.73;57.19;101117.44;5062149;28;20029;-83
2021/07/27 06:37:08;;;;;;;21.95;19.58;;;;;;;22.75;57.26;101126.97;5058865;28;20021;-83
2021/07/27 06:39:33;;;;;;;23.45;21.10;;;;;;;22.77;57.24;101124.31;5039635;28;20494;-83
2021/07/27 06:41:58;;;;;;;21.70;19.52;;;;;;;22.75;56.57;101120.88;5039593;28;20052;-84
2021/07/27 06:44:24;;;;;;;23.63;20.55;;;;;;;22.75;56.89;101126.13;5038941;28;20049;-84
2021/07/27 06:46:49;;;;;;;25.00;19.92;;;;;;;22.74;57.34;101121.78;5039159;28;20028;-84
2021/07/27 06:49:15;;;;;;;22.80;20.50;;;;;;;22.73;56.88;101117.44;5022583;28;20372;-83
2021/07/27 06:51:41;;;;;;;27.70;20.47;;;;;;;22.74;56.75;101122.63;5057168;28;20028;-83
2021/07/27 06:54:08;;;;;;;21.75;19.60;;;;;;;22.76;56.67;101117.34;5040065;28;20479;-85
2021/07/27 06:56:34;;;;;;;22.48;20.13;;;;;;;22.75;57.19;101124.34;5040187;28;20037;-80
2021/07/27 06:59:01;;;;;;;25.38;21.10;;;;;;;22.75;56.53;101119.09;5038836;28;20498;-82
2021/07/27 07:01:26;;;;;;;22.35;19.95;;;;;;;22.75;56.47;101128.75;5039072;28;20375;-85
2021/07/27 07:03:52;;;;;;;22.17;19.90;;;;;;;22.75;57.43;101128.75;5038937;28;20029;-78
2021/07/27 07:06:18;;;;;;;21.90;19.60;;;;;;;22.77;56.66;101130.41;5022363;28;20025;-85
2021/07/27 07:08:43;;;;;;;20.90;18.65;;;;;;;22.78;56.88;101137.41;5038750;28;20083;-85
2021/07/27 07:11:10;;;;;;;26.33;18.83;;;;;;;22.78;56.46;101139.19;5055345;28;20029;-84
2021/07/27 07:13:36;;;;;;;19.63;17.55;;;;;;;22.79;56.76;101131.22;5038815;28;20051;-84
2021/07/27 07:16:10;;;;;;;20.42;16.92;;;;;;;22.86;55.46;101133.69;5055210;28;20021;-85
2021/07/27 07:18:36;;;;;;;20.02;16.88;;;;;;;22.92;56.46;101137.03;5055515;28;20049;-84
2021/07/27 07:21:03;;;;;;;19.42;16.75;;;;;;;22.95;56.45;101136.97;5038662;28;20395;-85
2021/07/27 07:23:29;;;;;;;17.20;15.50;;;;;;;22.98;56.75;101136.84;5038461;28;20480;-84
2021/07/27 07:25:54;;;;;;;18.30;15.60;;;;;;;23.04;56.76;101140.25;5038702;28;20115;-84
2021/07/27 07:28:20;;;;;;;16.90;15.10;;;;;;;23.05;56.85;101140.22;5055368;28;20025;-85
2021/07/27 07:30:47;;;;;;;17.42;15.43;;;;;;;23.07;56.70;101141.03;5022005;28;20430;-84
2021/07/27 07:33:13;;;;;;;16.10;14.50;;;;;;;23.11;56.63;101142.66;5054955;28;20029;-85
2021/07/27 07:35:38;;;;;;;15.77;13.57;;;;;;;23.12;56.44;101135.66;5038414;28;20036;-83
2021/07/27 07:38:04;;;;;;;18.05;14.50;;;;;;;23.12;56.79;101130.41;5023007;28;20429;-85
2021/07/27 07:40:29;;;;;;;14.93;13.43;;;;;;;23.14;56.27;101136.47;5054701;28;20045;-85
2021/07/27 07:43:02;;;;;;;15.63;14.02;;;;;;;23.15;56.30;101135.56;5054693;28;20457;-85
2021/07/27 07:45:29;;;;;;;14.80;12.95;;;;;;;23.15;56.21;101143.44;5055711;28;20076;-85
2021/07/27 07:47:54;;;;;;;14.23;12.82;;;;;;;23.13;56.22;101140.00;5037898;28;20041;-85
2021/07/27 07:50:20;;;;;;;14.93;13.40;;;;;;;23.14;56.27;101144.34;5055089;28;20074;-85
2021/07/27 07:52:46;;;;;;;14.30;12.93;;;;;;;23.13;56.24;101142.63;5038284;28;20395;-85
2021/07/27 07:55:12;;;;;;;14.13;12.68;;;;;;;23.12;56.23;101136.50;5038392;28;20021;-85
2021/07/27 07:57:38;;;;;;;13.73;12.52;;;;;;;23.13;56.68;101145.25;5038203;28;20434;-85
2021/07/27 08:00:05;;;;;;;14.05;12.65;;;;;;;23.15;56.26;101151.31;5054653;28;20032;-86
2021/07/27 08:02:30;;;;;;;13.32;12.13;;;;;;;23.14;56.45;101142.56;5038079;28;20024;-85
2021/07/27 08:04:56;;;;;;;13.93;12.52;;;;;;;23.15;56.35;101149.56;5038038;28;20024;-84
2021/07/27 08:07:22;;;;;;;13.60;12.30;;;;;;;23.14;56.08;101147.81;5054657;28;20029;-85
2021/07/27 08:09:48;;;;;;;13.63;12.30;;;;;;;23.15;56.51;101148.69;5037879;28;20423;-84
2021/07/27 08:12:14;;;;;;;12.70;11.60;;;;;;;23.15;56.51;101143.44;5037884;28;20485;-85
2021/07/27 08:14:40;;;;;;;14.07;12.68;;;;;;;23.16;56.65;101132.88;5054372;28;20025;-85
2021/07/27 08:17:05;;;;;;;13.27;11.82;;;;;;;23.17;56.26;101137.25;5030110;28;20605;-84
2021/07/27 08:19:31;;;;;;;13.43;12.13;;;;;;;23.18;56.20;101130.22;5037924;28;20028;-84
2021/07/27 08:21:57;;;;;;;14.38;12.95;;;;;;;23.20;56.24;101128.41;5054611;28;20031;-85
2021/07/27 08:24:24;;;;;;;14.55;11.82;;;;;;;23.23;56.16;101128.31;5021083;28;20067;-84
2021/07/27 08:26:50;;;;;;;14.35;12.95;;;;;;;23.22;56.08;101131.88;5021476;28;20500;-83
2021/07/27 08:29:15;;;;;;;14.10;12.70;;;;;;;23.22;55.93;101123.13;5037613;28;20100;-84
2021/07/27 08:31:42;;;;;;;12.40;11.18;;;;;;;23.23;56.01;101124.84;5037753;28;20040;-84
2021/07/27 08:34:07;;;;;;;13.02;11.77;;;;;;;23.24;56.17;101122.19;5021179;28;20033;-84
2021/07/27 08:36:32;;;;;;;13.32;11.93;;;;;;;23.25;56.05;101129.13;5037910;28;20082;-84
2021/07/27 08:38:58;;;;;;;13.48;12.13;;;;;;;23.24;56.01;101123.94;5021057;28;20475;-83
2021/07/27 08:41:28;;;;;;;13.73;12.13;;;;;;;23.24;55.94;101124.81;5021063;28;20029;-84
2021/07/27 08:43:54;;;;;;;14.07;12.55;;;;;;;23.25;56.13;101136.16;5054053;28;20048;-85
2021/07/27 08:46:19;;;;;;;13.57;12.18;;;;;;;23.25;55.91;101133.53;5037577;28;20467;-84
2021/07/27 08:48:46;;;;;;;13.38;12.05;;;;;;;23.25;55.56;101131.75;5037522;28;20067;-83
2021/07/27 08:51:12;;;;;;;13.52;12.10;;;;;;;23.26;55.69;101130.88;5021255;28;20415;-84
2021/07/27 08:53:38;;;;;;;13.60;12.35;;;;;;;23.27;55.61;101134.34;5053885;28;20053;-84
2021/07/27 08:56:04;;;;;;;12.80;11.65;;;;;;;23.25;55.50;101126.50;5021621;28;20102;-84
2021/07/27 08:58:29;;;;;;;14.20;12.80;;;;;;;23.25;55.73;101131.75;5038612;28;20051;-84
2021/07/27 09:00:54;;;;;;;13.80;12.50;;;;;;;23.27;55.81;101132.59;5037822;28;20025;-83
2021/07/27 09:03:20;;;;;;;14.15;12.75;;;;;;;23.27;55.85;101134.34;5023239;28;20028;-86
2021/07/27 09:05:47;;;;;;;13.30;12.00;;;;;;;23.25;55.88;101134.38;5022412;28;20035;-83
2021/07/27 09:08:19;;;;;;;13.30;12.00;;;;;;;23.27;55.70;101135.22;5021621;28;20053;-83
2021/07/27 09:10:45;;;;;;;13.82;12.43;;;;;;;23.29;55.44;101135.16;5024391;28;20025;-85
2021/07/27 09:13:20;;;;;;;13.65;12.25;;;;;;;23.31;55.48;101133.38;5054295;28;20036;-83
2021/07/27 09:15:46;;;;;;;12.63;11.43;;;;;;;23.32;55.47;101132.44;5060872;28;20048;-83
2021/07/27 09:18:15;;;;;;;13.07;11.77;;;;;;;23.36;55.24;101129.69;5055441;28;20479;-82
2021/07/27 09:20:43;;;;;;;13.98;12.68;;;;;;;23.42;54.91;101131.28;5037429;28;20036;-83
2021/07/27 09:23:28;;;;;;;12.05;10.85;;;;;;;23.42;55.03;101131.28;5054574;28;20437;-84
2021/07/27 09:25:57;;;;;;;13.05;11.85;;;;;;;23.40;54.85;101133.09;5054153;28;20078;-83
2021/07/27 09:28:23;;;;;;;13.45;11.85;;;;;;;23.38;55.60;101132.28;5053303;28;20021;-84
2021/07/27 09:30:50;;;;;;;14.30;12.50;;;;;;;23.36;55.24;101126.19;5054550;28;20033;-83
2021/07/27 09:33:17;;;;;;;12.90;11.60;;;;;;;23.37;55.32;101131.41;5036305;28;20029;-83
2021/07/27 09:35:45;;;;;;;14.68;12.75;;;;;;;23.37;55.33;101130.56;5053207;28;20025;-83
2021/07/27 09:38:18;;;;;;;13.73;12.43;;;;;;;23.36;55.09;101134.94;5057983;28;20029;-83
2021/07/27 09:40:50;;;;;;;13.65;12.30;;;;;;;23.36;55.65;101132.31;5052994;28;20025;-83
2021/07/27 09:43:20;;;;;;;12.40;11.13;;;;;;;23.37;55.43;101134.03;5052404;28;20029;-83
2021/07/27 09:45:48;;;;;;;13.02;11.40;;;;;;;23.38;55.71;101137.53;5036009;28;20120;-83
2021/07/27 09:48:15;;;;;;;11.60;10.38;;;;;;;23.39;55.15;101134.00;5052702;28;20037;-83
2021/07/27 09:50:45;;;;;;;13.50;12.18;;;;;;;23.39;55.57;101132.22;5035944;28;20029;-84
2021/07/27 09:53:10;;;;;;;11.68;10.63;;;;;;;23.40;55.05;101133.09;5036847;28;20052;-84
2021/07/27 09:55:37;;;;;;;11.73;10.63;;;;;;;23.40;55.51;101133.94;5035805;28;20024;-83
2021/07/27 09:58:02;;;;;;;12.20;11.13;;;;;;;23.42;54.91;101133.91;5053916;28;20024;-83
2021/07/27 10:00:28;;;;;;;12.35;11.20;;;;;;;23.40;54.98;101135.72;5019311;28;20029;-83
2021/07/27 10:02:55;;;;;;;12.80;11.60;;;;;;;23.40;55.08;101131.31;5035908;28;20021;-83
2021/07/27 10:05:25;;;;;;;12.00;10.90;;;;;;;23.40;55.15;101133.94;5052184;28;20490;-84
2021/07/27 10:07:56;;;;;;;12.70;11.50;;;;;;;23.38;54.87;101134.91;5035757;28;20033;-84
2021/07/27 10:10:36;;;;;;;11.40;10.30;;;;;;;23.37;55.45;101141.06;5067918;28;20025;-85
2021/07/27 10:13:06;;;;;;;11.65;10.55;;;;;;;23.38;55.21;101140.16;5052397;28;20371;-86
2021/07/27 10:15:44;;;;;;;12.35;11.13;;;;;;;23.37;55.10;101141.06;5035874;28;20031;-87
2021/07/27 10:18:14;;;;;;;12.90;11.60;;;;;;;23.34;55.51;101141.13;5054059;28;20024;-85
2021/07/27 10:20:40;;;;;;;12.63;11.45;;;;;;;23.36;55.74;101141.97;5052280;28;20035;-86
2021/07/27 10:23:17;;;;;;;13.13;11.93;;;;;;;23.37;55.67;101147.19;5051976;28;20021;-85
2021/07/27 10:25:56;;;;;;;13.75;12.45;;;;;;;23.34;55.60;101149.91;5036027;28;20029;-85
2021/07/27 10:28:24;;;;;;;15.60;13.95;;;;;;;23.32;55.64;101150.81;5035713;28;20053;-86
2021/07/27 10:31:01;;;;;;;15.57;14.07;;;;;;;23.32;55.98;101156.06;5035780;28;20467;-86
2021/07/27 10:33:27;;;;;;;12.18;10.88;;;;;;;23.33;55.62;101144.69;5035750;28;20044;-86
2021/07/27 10:35:54;;;;;;;12.23;11.05;;;;;;;23.32;55.76;101145.56;5018927;28;20033;-85
2021/07/27 10:38:22;;;;;;;14.20;12.90;;;;;;;23.32;55.87;101143.84;5035520;28;20034;-86
2021/07/27 10:40:49;;;;;;;13.75;12.38;;;;;;;23.31;56.21;101149.13;5019507;28;20021;-86
2021/07/27 10:43:25;;;;;;;14.38;12.63;;;;;;;23.32;55.88;101153.44;5052455;28;20028;-85
2021/07/27 10:46:00;;;;;;;15.63;14.07;;;;;;;23.32;55.96;101161.34;5037925;28;20107;-85
2021/07/27 10:48:36;;;;;;;14.75;12.65;;;;;;;23.33;56.07;101157.81;5057357;28;20041;-85
2021/07/27 10:51:02;;;;;;;14.90;13.38;;;;;;;23.33;55.83;101163.91;5054678;28;20016;-83
2021/07/27 10:53:32;;;;;;;16.58;13.73;;;;;;;23.35;55.69;101166.50;5053947;28;20021;-86
2021/07/27 10:56:01;;;;;;;15.95;14.35;;;;;;;23.40;55.63;101159.34;5036445;28;20382;-85
2021/07/27 10:58:28;;;;;;;20.55;17.27;;;;;;;23.44;55.89;101155.72;5061092;28;20029;-84
2021/07/27 11:00:54;;;;;;;16.08;14.40;;;;;;;23.49;55.71;101142.47;5053836;28;20031;-85
2021/07/27 11:03:27;;;;;;;16.08;14.40;;;;;;;23.51;55.59;101145.91;5020971;28;20115;-85
2021/07/27 11:05:59;;;;;;;13.88;12.57;;;;;;;23.53;55.55;101134.44;5036459;28;20031;-86
2021/07/27 11:08:24;;;;;;;15.55;14.05;;;;;;;23.56;55.36;101134.38;5039452;28;20033;-85
2021/07/27 11:10:50;;;;;;;14.07;12.68;;;;;;;23.60;55.30;101132.50;5038550;28;20089;-85
2021/07/27 11:13:15;;;;;;;15.93;14.23;;;;;;;23.60;55.55;101120.25;5037341;28;20540;-85
2021/07/27 11:15:41;;;;;;;19.50;17.02;;;;;;;23.59;55.65;101115.88;5053776;28;20025;-85
2021/07/27 11:18:06;;;;;;;16.95;15.25;;;;;;;23.60;55.34;101120.25;5020974;28;20370;-84
2021/07/27 11:20:39;;;;;;;17.50;15.73;;;;;;;23.61;55.55;101121.94;5045098;28;20036;-82
2021/07/27 11:23:19;;;;;;;17.50;15.75;;;;;;;23.62;55.64;101118.41;5046107;28;20021;-86
2021/07/27 11:25:57;;;;;;;18.50;16.48;;;;;;;23.65;55.87;101127.09;5066462;28;20040;-86
2021/07/27 11:28:32;;;;;;;19.33;15.90;;;;;;;23.65;55.54;101116.59;5066372;28;20111;-86
2021/07/27 11:31:04;;;;;;;18.10;16.25;;;;;;;23.66;55.76;101120.94;5058646;28;20029;-84